Time;durP1;ratioP1;P1;durP2;ratioP2;P2;SDS_P1;SDS_P2;PMS_P1;PMS_P2;Temp;Humidity;BMP_temperature;BMP_pressure;BME280_temperature;BME280_humidity;BME280_pressure;Samples;Min_cycle;Max_cycle;Signal;HPM_P1;HPM_P2
2022/03/17 00:00:33;;;;;;;0.40;0.20;;;;;;;7.08;93.49;102333.31;5056875;28;20442;-74
2022/03/17 00:03:00;;;;;;;0.40;0.30;;;;;;;7.05;93.47;102336.47;5056816;28;20442;-74
2022/03/17 00:05:26;;;;;;;0.40;0.30;;;;;;;7.08;92.54;102329.78;5056803;28;20437;-74
2022/03/17 00:07:53;;;;;;;0.50;0.40;;;;;;;7.02;93.18;102333.41;5056638;28;20522;-74
2022/03/17 00:10:19;;;;;;;0.40;0.40;;;;;;;6.94;94.17;102333.75;5056660;28;20446;-75
2022/03/17 00:12:48;;;;;;;0.40;0.30;;;;;;;6.95;93.97;102336.22;5056345;28;20931;-74
2022/03/17 00:15:16;;;;;;;0.40;0.30;;;;;;;7.03;94.36;102335.03;5056239;28;20998;-74
2022/03/17 00:17:43;;;;;;;0.40;0.30;;;;;;;7.05;94.62;102354.50;5056253;28;20474;-74
2022/03/17 00:20:11;;;;;;;0.70;0.67;;;;;;;6.99;94.93;102341.94;5056298;28;20939;-74
2022/03/17 00:22:37;;;;;;;0.40;0.27;;;;;;;6.90;95.08;102338.78;5056581;28;20453;-74
2022/03/17 00:25:05;;;;;;;0.40;0.30;;;;;;;6.80;95.58;102347.44;5056451;28;20572;-74
2022/03/17 00:27:31;;;;;;;0.40;0.30;;;;;;;6.78;95.35;102344.16;5056335;28;20549;-74
2022/03/17 00:29:59;;;;;;;0.40;0.30;;;;;;;6.79;95.00;102339.59;5056006;28;20438;-74
2022/03/17 00:32:26;;;;;;;0.40;0.30;;;;;;;6.70;95.09;102331.03;5055943;28;20947;-74
2022/03/17 00:37:36;;;;;;;3.07;2.93;;;;;;;6.64;94.17;102331.13;5055916;28;20484;-74
2022/03/17 00:40:04;;;;;;;0.40;0.30;;;;;;;6.57;92.62;102340.16;5056393;28;20446;-74
2022/03/17 00:42:30;;;;;;;0.40;0.30;;;;;;;6.43;92.98;102336.00;5055743;28;20449;-74
2022/03/17 00:44:57;;;;;;;0.50;0.43;;;;;;;6.41;92.76;102327.34;5055989;28;20473;-74
2022/03/17 00:47:24;;;;;;;1.20;1.20;;;;;;;6.36;92.59;102329.91;5055898;28;20474;-74
2022/03/17 00:49:51;;;;;;;0.40;0.30;;;;;;;6.31;93.00;102321.69;5055950;28;20441;-74
2022/03/17 00:52:20;;;;;;;0.40;0.30;;;;;;;6.35;92.50;102328.25;5055545;28;20943;-73
2022/03/17 00:54:47;;;;;;;0.40;0.30;;;;;;;6.35;93.12;102319.38;5055777;28;20488;-74
2022/03/17 00:57:14;;;;;;;3.77;3.43;;;;;;;6.34;93.46;102325.81;5054411;28;20994;-74
2022/03/17 00:59:41;;;;;;;0.40;0.30;;;;;;;6.35;93.29;102319.38;5055429;28;20968;-74
2022/03/17 01:02:08;;;;;;;0.40;0.30;;;;;;;6.28;94.41;102312.19;5055645;28;20473;-74
2022/03/17 01:04:36;;;;;;;0.40;0.30;;;;;;;6.32;94.87;102317.94;5055608;28;20450;-74
2022/03/17 01:07:04;;;;;;;0.40;0.30;;;;;;;6.39;95.81;102323.25;5055611;28;20454;-74
2022/03/17 01:09:30;;;;;;;0.40;0.30;;;;;;;6.38;97.02;102322.44;5055538;28;20438;-74
2022/03/17 01:11:57;;;;;;;0.40;0.30;;;;;;;6.38;97.21;102316.22;5055581;28;20449;-74
2022/03/17 01:14:24;;;;;;;1.43;1.33;;;;;;;6.42;97.48;102322.78;5055431;28;20495;-74
2022/03/17 01:16:51;;;;;;;0.40;0.23;;;;;;;6.40;97.63;102323.00;5055154;28;20490;-74
2022/03/17 01:19:19;;;;;;;0.40;0.30;;;;;;;6.50;97.29;102325.94;5055418;28;20478;-74
2022/03/17 01:21:47;;;;;;;0.40;0.30;;;;;;;6.53;97.47;102319.31;5055313;28;20454;-74
2022/03/17 01:24:13;;;;;;;0.40;0.30;;;;;;;6.58;97.92;102316.72;5055282;28;20426;-73
2022/03/17 01:26:40;;;;;;;0.40;0.30;;;;;;;6.67;97.73;102315.34;5055206;28;20438;-74
2022/03/17 01:29:06;;;;;;;0.40;0.33;;;;;;;6.69;97.66;102318.63;5054931;28;20842;-74
2022/03/17 01:31:33;;;;;;;0.50;0.40;;;;;;;6.67;98.03;102314.53;5055174;28;20446;-74
2022/03/17 01:33:59;;;;;;;0.40;0.30;;;;;;;6.71;97.69;102316.50;5054761;28;20861;-74
2022/03/17 01:36:26;;;;;;;0.40;0.30;;;;;;;6.73;97.48;102314.44;5054935;28;20477;-74
2022/03/17 01:38:54;;;;;;;0.80;0.80;;;;;;;6.75;96.82;102312.31;5055026;28;20450;-74
2022/03/17 01:41:21;;;;;;;0.40;0.30;;;;;;;6.80;96.22;102309.72;5054986;28;20438;-74
2022/03/17 01:43:47;;;;;;;1.47;1.37;;;;;;;6.79;95.70;102301.91;5054898;28;20442;-74
2022/03/17 01:46:15;;;;;;;0.40;0.30;;;;;;;6.77;95.05;102314.75;5054846;28;20434;-74
2022/03/17 01:48:41;;;;;;;0.40;0.30;;;;;;;6.80;94.83;102309.72;5054755;28;20473;-74
2022/03/17 01:51:08;;;;;;;0.40;0.30;;;;;;;6.79;94.49;102310.78;5054998;28;20449;-74
2022/03/17 01:53:35;;;;;;;0.60;0.60;;;;;;;6.79;93.76;102302.72;5054783;28;20442;-74
2022/03/17 01:56:04;;;;;;;1.53;1.43;;;;;;;6.79;94.27;102301.91;5054629;28;20481;-74
2022/03/17 01:58:32;;;;;;;0.40;0.30;;;;;;;6.78;94.19;102300.25;5054616;28;20462;-74
2022/03/17 02:00:59;;;;;;;0.40;0.30;;;;;;;6.80;94.41;102298.97;5054554;28;20495;-74
2022/03/17 02:03:27;;;;;;;0.40;0.30;;;;;;;6.87;94.81;102300.75;5054547;28;20465;-74
2022/03/17 02:05:53;;;;;;;0.40;0.30;;;;;;;6.91;95.31;102299.22;5054504;28;20438;-74
2022/03/17 02:08:20;;;;;;;0.40;0.30;;;;;;;6.95;95.28;102294.97;5054247;28;20470;-75
2022/03/17 02:13:32;;;;;;;0.83;0.83;;;;;;;6.90;95.65;102286.78;5054222;28;20414;-74
2022/03/17 02:16:02;;;;;;;4.43;3.93;;;;;;;6.89;95.66;102285.16;5053900;28;20486;-74
2022/03/17 02:18:28;;;;;;;0.83;0.30;;;;;;;6.94;95.58;102285.25;5053880;28;20565;-75
2022/03/17 02:20:57;;;;;;;0.40;0.30;;;;;;;6.96;95.52;102285.88;5054144;28;20482;-75
2022/03/17 02:26:09;;;;;;;0.40;0.30;;;;;;;7.00;95.07;102282.47;5053973;28;20895;-74
2022/03/17 02:28:36;;;;;;;0.40;0.30;;;;;;;7.03;94.36;102276.59;5054043;28;20461;-75
2022/03/17 02:31:02;;;;;;;0.40;0.30;;;;;;;7.03;93.26;102279.28;5054086;28;20450;-75
2022/03/17 02:33:29;;;;;;;0.40;0.20;;;;;;;6.98;93.24;102276.47;5053973;28;20920;-75
2022/03/17 02:35:56;;;;;;;0.50;0.30;;;;;;;6.94;92.95;102282.56;5053792;28;20478;-75
2022/03/17 02:38:22;;;;;;;3.43;2.33;;;;;;;6.90;92.15;102281.41;5053856;28;20901;-75
2022/03/17 02:40:52;;;;;;;0.40;0.30;;;;;;;6.92;91.71;102285.50;5053927;28;20447;-75
2022/03/17 02:43:19;;;;;;;0.40;0.30;;;;;;;6.90;91.58;102289.47;5053381;28;20438;-75
2022/03/17 02:45:46;;;;;;;0.40;0.30;;;;;;;6.86;91.93;102285.63;5053788;28;20442;-75
2022/03/17 02:48:13;;;;;;;0.40;0.30;;;;;;;6.80;91.72;102280.13;5053725;28;20470;-75
2022/03/17 02:50:40;;;;;;;0.40;0.30;;;;;;;6.77;91.57;102274.38;5053339;28;20450;-75
2022/03/17 02:53:07;;;;;;;0.40;0.30;;;;;;;6.81;90.81;102272.84;5053650;28;20437;-75
2022/03/17 02:55:35;;;;;;;0.40;0.20;;;;;;;6.77;91.05;102267.13;5053459;28;20438;-75
2022/03/17 02:58:04;;;;;;;1.27;0.30;;;;;;;6.76;91.17;102260.09;5053559;28;20583;-75
2022/03/17 03:00:31;;;;;;;0.60;0.60;;;;;;;6.72;92.31;102258.09;5053686;28;20441;-75
2022/03/17 03:02:57;;;;;;;0.60;0.60;;;;;;;6.70;93.09;102254.84;5053600;28;20446;-74
2022/03/17 03:05:24;;;;;;;0.40;0.30;;;;;;;6.73;93.52;102248.97;5053537;28;20446;-74
2022/03/17 03:07:51;;;;;;;0.40;0.30;;;;;;;6.79;93.55;102248.03;5053368;28;20470;-75
2022/03/17 03:10:17;;;;;;;1.23;1.13;;;;;;;6.79;93.61;102259.63;5053380;28;20446;-75
2022/03/17 03:12:44;;;;;;;2.40;2.30;;;;;;;6.83;93.37;102257.28;5053409;28;20442;-75
2022/03/17 03:15:12;;;;;;;0.40;0.30;;;;;;;6.76;93.75;102254.69;5053308;28;20446;-75
2022/03/17 03:17:39;;;;;;;0.40;0.30;;;;;;;6.82;93.10;102248.41;5052672;28;21025;-75
2022/03/17 03:20:06;;;;;;;0.40;0.30;;;;;;;6.88;92.97;102256.59;5052768;28;20434;-75
2022/03/17 03:22:39;;;;;;;0.40;0.30;;;;;;;6.89;92.77;102252.84;5053228;28;20456;-73
2022/03/17 03:25:06;;;;;;;0.40;0.20;;;;;;;6.87;92.47;102268.41;5053260;28;20419;-74
2022/03/17 03:27:32;;;;;;;0.50;0.30;;;;;;;6.86;92.05;102264.88;5052746;28;20998;-74
2022/03/17 03:30:01;;;;;;;0.40;0.30;;;;;;;6.83;91.29;102266.19;5053183;28;20446;-73
2022/03/17 03:32:28;;;;;;;2.10;2.00;;;;;;;6.83;90.42;102260.81;5052641;28;20454;-74
2022/03/17 03:34:55;;;;;;;0.40;0.30;;;;;;;6.79;90.01;102270.41;5053048;28;20461;-74
2022/03/17 03:37:24;;;;;;;0.50;0.40;;;;;;;6.78;90.23;102271.47;5052928;28;20494;-74
2022/03/17 03:39:52;;;;;;;0.40;0.30;;;;;;;6.73;90.31;102260.56;5053090;28;20441;-74
2022/03/17 03:42:19;;;;;;;5.83;5.30;;;;;;;6.75;89.88;102258.44;5053032;28;20443;-74
2022/03/17 03:44:46;;;;;;;6.70;3.90;;;;;;;6.72;89.45;102250.00;5052977;28;20445;-74
2022/03/17 03:47:13;;;;;;;0.57;0.57;;;;;;;6.71;89.37;102262.66;5052923;28;20465;-74
2022/03/17 03:49:41;;;;;;;0.40;0.30;;;;;;;6.70;89.84;102254.84;5052675;28;20499;-74
2022/03/17 03:52:09;;;;;;;0.40;0.30;;;;;;;6.69;89.69;102250.50;5052966;28;20438;-74
2022/03/17 03:54:36;;;;;;;1.23;1.13;;;;;;;6.70;89.76;102258.34;5052916;28;20438;-75
2022/03/17 03:57:03;;;;;;;0.40;0.30;;;;;;;6.75;90.24;102258.44;5052691;28;20482;-74
2022/03/17 03:59:30;;;;;;;0.40;0.30;;;;;;;6.75;90.49;102263.84;5052836;28;20438;-75
2022/03/17 04:01:58;;;;;;;0.40;0.30;;;;;;;6.77;90.62;102256.38;5052561;28;20811;-75
2022/03/17 04:04:25;;;;;;;0.40;0.30;;;;;;;6.75;90.51;102255.75;5052794;28;20454;-75
2022/03/17 04:06:55;;;;;;;0.40;0.30;;;;;;;6.78;90.55;102263.38;5052689;28;20878;-75
2022/03/17 04:09:24;;;;;;;0.40;0.30;;;;;;;6.85;90.19;102251.66;5052756;28;20438;-74
2022/03/17 04:11:51;;;;;;;0.50;0.40;;;;;;;6.85;89.97;102238.19;5052513;28;20936;-74
2022/03/17 04:14:18;;;;;;;0.50;0.43;;;;;;;6.81;89.94;102240.53;5052743;28;20447;-73
2022/03/17 04:16:45;;;;;;;1.23;1.13;;;;;;;6.86;89.49;102245.22;5052295;28;20899;-74
2022/03/17 04:19:12;;;;;;;1.13;1.13;;;;;;;6.87;89.39;102245.00;5054170;28;20426;-75
2022/03/17 04:21:39;;;;;;;0.40;0.30;;;;;;;6.81;89.41;102246.72;5052652;28;20450;-74
2022/03/17 04:24:07;;;;;;;0.40;0.30;;;;;;;6.83;89.27;102241.13;5052630;28;20441;-73
2022/03/17 04:26:34;;;;;;;0.80;0.80;;;;;;;6.74;88.83;102246.06;5052620;28;20484;-76
2022/03/17 04:29:00;;;;;;;7.73;6.83;;;;;;;6.78;87.97;102241.84;5052621;28;20430;-75
2022/03/17 04:31:27;;;;;;;0.40;0.30;;;;;;;6.78;87.08;102249.09;5052630;28;20450;-70
2022/03/17 04:33:53;;;;;;;0.40;0.30;;;;;;;6.81;86.98;102244.03;5055882;28;20452;-76
2022/03/17 04:36:21;;;;;;;0.67;0.67;;;;;;;6.85;86.77;102257.03;5056205;28;20485;-76
2022/03/17 04:38:47;;;;;;;1.23;1.13;;;;;;;6.79;86.88;102264.19;5055756;28;20462;-75
2022/03/17 04:41:17;;;;;;;0.50;0.30;;;;;;;6.75;86.45;102263.84;5055976;28;20442;-76
2022/03/17 04:43:44;;;;;;;0.40;0.30;;;;;;;6.72;86.54;102258.09;5056107;28;20450;-75
2022/03/17 04:46:10;;;;;;;0.63;0.63;;;;;;;6.71;86.68;102259.97;5056069;28;20935;-76
2022/03/17 04:48:37;;;;;;;11.83;11.13;;;;;;;6.74;86.39;102272.16;5055931;28;20466;-75
2022/03/17 04:51:04;;;;;;;0.50;0.40;;;;;;;6.71;86.13;102265.34;5055995;28;20438;-74
2022/03/17 04:53:32;;;;;;;1.87;1.77;;;;;;;6.70;86.50;102261.03;5055623;28;20446;-74
2022/03/17 04:56:00;;;;;;;2.50;2.40;;;;;;;6.73;87.52;102273.19;5055458;28;21006;-75
2022/03/17 04:58:29;;;;;;;0.40;0.30;;;;;;;6.76;87.82;102268.16;5055882;28;20469;-76
2022/03/17 05:00:56;;;;;;;0.40;0.30;;;;;;;6.78;88.13;102262.56;5055526;28;20518;-76
2022/03/17 05:03:22;;;;;;;0.40;0.30;;;;;;;6.86;87.35;102278.34;5055752;28;20446;-75
2022/03/17 05:05:49;;;;;;;0.40;0.30;;;;;;;6.87;87.30;102282.69;5055723;28;20445;-76
2022/03/17 05:08:16;;;;;;;0.40;0.30;;;;;;;6.88;87.60;102283.53;5055629;28;20461;-76
2022/03/17 05:10:44;;;;;;;0.40;0.30;;;;;;;6.87;87.35;102281.88;5055530;28;20454;-75
2022/03/17 05:13:11;;;;;;;5.10;3.63;;;;;;;6.92;87.29;102279.31;5055593;28;20454;-76
2022/03/17 05:15:40;;;;;;;0.40;0.33;;;;;;;6.91;87.16;102283.06;5055474;28;20450;-76
2022/03/17 05:18:07;;;;;;;0.40;0.30;;;;;;;6.97;86.81;102272.16;5055001;28;20490;-76
2022/03/17 05:20:35;;;;;;;0.40;0.30;;;;;;;6.91;87.05;102277.66;5055406;28;20874;-75
2022/03/17 05:23:04;;;;;;;0.40;0.30;;;;;;;6.95;86.61;102278.81;5055433;28;20539;-75
2022/03/17 05:25:31;;;;;;;1.80;1.70;;;;;;;6.90;86.41;102267.94;5055364;28;20560;-75
2022/03/17 05:27:58;;;;;;;0.40;0.30;;;;;;;6.84;86.03;102267.00;5054895;28;20473;-75
2022/03/17 05:30:25;;;;;;;9.30;8.60;;;;;;;6.86;85.21;102283.72;5054929;28;20995;-76
2022/03/17 05:32:53;;;;;;;1.47;1.43;;;;;;;6.87;84.80;102282.69;5055134;28;20446;-76
2022/03/17 05:35:20;;;;;;;0.40;0.30;;;;;;;6.86;84.86;102281.03;5055122;28;20443;-76
2022/03/17 05:37:48;;;;;;;0.40;0.30;;;;;;;6.85;84.93;102284.78;5055117;28;20486;-75
2022/03/17 05:40:17;;;;;;;0.40;0.30;;;;;;;6.79;84.81;102291.94;5054760;28;20449;-76
2022/03/17 05:42:46;;;;;;;1.60;1.50;;;;;;;6.79;84.89;102294.63;5054613;28;20488;-75
2022/03/17 05:45:14;;;;;;;0.70;0.60;;;;;;;6.83;84.30;102292.31;5054962;28;20449;-76
2022/03/17 05:47:43;;;;;;;3.77;2.77;;;;;;;6.86;84.38;102291.81;5054781;28;20458;-76
2022/03/17 05:50:12;;;;;;;17.67;3.60;;;;;;;6.83;84.86;102295.81;5054915;28;20776;-73
2022/03/17 05:52:40;;;;;;;0.50;0.30;;;;;;;6.80;85.14;102290.88;5054816;28;20453;-73
2022/03/17 05:55:07;;;;;;;0.40;0.30;;;;;;;6.73;85.20;102295.59;5054773;28;20504;-74
2022/03/17 05:57:34;;;;;;;0.40;0.30;;;;;;;6.77;84.86;102298.59;5054574;28;20497;-73
2022/03/17 06:00:01;;;;;;;0.40;0.30;;;;;;;6.79;85.83;102300.03;5054348;28;20971;-73
2022/03/17 06:02:27;;;;;;;0.43;0.37;;;;;;;6.83;86.60;102298.50;5054618;28;20442;-73
2022/03/17 06:04:53;;;;;;;0.40;0.30;;;;;;;6.83;87.29;102300.38;5054568;28;20442;-73
2022/03/17 06:07:21;;;;;;;0.40;0.30;;;;;;;6.90;87.33;102301.06;5054156;28;20971;-73
2022/03/17 06:09:48;;;;;;;0.40;0.30;;;;;;;6.91;87.08;102293.84;5054437;28;20449;-71
2022/03/17 06:12:15;;;;;;;7.20;6.80;;;;;;;6.98;86.99;102297.22;5054897;28;20454;-73
2022/03/17 06:14:42;;;;;;;0.40;0.30;;;;;;;7.01;86.66;102299.44;5054151;28;20861;-75
2022/03/17 06:17:10;;;;;;;0.40;0.30;;;;;;;7.03;86.70;102298.13;5054104;28;20490;-75
2022/03/17 06:19:38;;;;;;;0.40;0.30;;;;;;;7.07;86.69;102293.09;5054612;28;20486;-74
2022/03/17 06:22:05;;;;;;;2.77;2.57;;;;;;;7.16;86.46;102291.69;5054026;28;20834;-75
2022/03/17 06:24:33;;;;;;;0.40;0.30;;;;;;;7.21;86.08;102291.81;5054217;28;20936;-74
2022/03/17 06:26:59;;;;;;;9.97;9.20;;;;;;;7.28;85.37;102291.69;5054309;28;20458;-74
2022/03/17 06:29:26;;;;;;;5.80;5.40;;;;;;;7.30;84.98;102298.50;5053983;28;20857;-75
2022/03/17 06:31:52;;;;;;;0.40;0.30;;;;;;;7.32;83.89;102296.38;5054050;28;20438;-74
2022/03/17 06:34:18;;;;;;;0.50;0.50;;;;;;;7.26;83.63;102291.94;5053846;28;20449;-75
2022/03/17 06:36:45;;;;;;;0.40;0.30;;;;;;;7.30;83.70;102297.66;5053597;28;20462;-75
2022/03/17 06:39:11;;;;;;;1.10;1.07;;;;;;;7.36;84.44;102296.72;5053910;28;20445;-75
2022/03/17 06:41:39;;;;;;;0.40;0.30;;;;;;;7.35;84.53;102300.47;5053829;28;20469;-75
2022/03/17 06:44:06;;;;;;;0.40;0.30;;;;;;;7.44;83.96;102295.53;5053529;28;20504;-75
2022/03/17 06:46:32;;;;;;;2.33;0.93;;;;;;;7.42;83.60;102301.16;5053697;28;20851;-75
2022/03/17 06:48:59;;;;;;;0.50;0.50;;;;;;;7.41;83.29;102296.81;5053764;28;20442;-75
2022/03/17 06:51:25;;;;;;;1.53;1.43;;;;;;;7.39;83.35;102292.72;5053727;28;20453;-75
2022/03/17 06:53:53;;;;;;;2.83;2.10;;;;;;;7.41;82.99;102293.31;5053464;28;20877;-75
2022/03/17 06:56:19;;;;;;;0.93;0.93;;;;;;;7.45;82.83;102289.09;5052821;28;20469;-74
2022/03/17 06:58:47;;;;;;;0.40;0.30;;;;;;;7.50;83.38;102294.59;5053088;28;20905;-72
2022/03/17 07:01:13;;;;;;;2.73;2.63;;;;;;;7.52;83.33;102287.88;5054316;28;20434;-75
2022/03/17 07:03:40;;;;;;;0.50;0.40;;;;;;;7.57;83.33;102288.00;5053544;28;20556;-72
2022/03/17 07:06:06;;;;;;;0.50;0.33;;;;;;;7.62;83.17;102292.69;5053414;28;20447;-72
2022/03/17 07:08:32;;;;;;;0.60;0.60;;;;;;;7.67;83.39;102287.38;5053381;28;20466;-72
2022/03/17 07:10:59;;;;;;;0.40;0.30;;;;;;;7.66;83.42;102288.44;5053037;28;20815;-72
2022/03/17 07:13:25;;;;;;;0.40;0.30;;;;;;;7.72;83.55;102295.56;5053054;28;20461;-73
2022/03/17 07:15:53;;;;;;;2.10;2.00;;;;;;;7.81;82.67;102291.44;5053200;28;20446;-72
2022/03/17 07:18:19;;;;;;;0.40;0.33;;;;;;;7.87;82.53;102288.84;5052813;28;20490;-75
2022/03/17 07:20:47;;;;;;;0.40;0.30;;;;;;;7.90;82.55;102288.34;5053181;28;20450;-69
2022/03/17 07:23:13;;;;;;;0.50;0.50;;;;;;;8.03;82.24;102290.78;5052851;28;20833;-72
2022/03/17 07:25:41;;;;;;;1.37;1.27;;;;;;;8.11;82.01;102298.47;5053167;28;20438;-72
2022/03/17 07:28:07;;;;;;;0.40;0.30;;;;;;;8.22;81.24;102303.00;5053041;28;20470;-72
2022/03/17 07:30:34;;;;;;;0.40;0.30;;;;;;;8.25;80.48;102307.91;5053173;28;20446;-72
2022/03/17 07:33:02;;;;;;;0.70;0.70;;;;;;;8.25;80.69;102305.22;5053174;28;20442;-72
2022/03/17 07:35:29;;;;;;;0.40;0.30;;;;;;;8.22;80.12;102305.69;5053125;28;20448;-72
2022/03/17 07:37:58;;;;;;;0.40;0.20;;;;;;;8.16;80.23;102301.28;5052975;28;20492;-72
2022/03/17 07:40:24;;;;;;;2.80;2.53;;;;;;;8.25;80.18;102302.50;5052721;28;20853;-72
2022/03/17 07:42:51;;;;;;;1.53;1.43;;;;;;;8.31;79.66;102306.94;5052653;28;20841;-72
2022/03/17 07:45:17;;;;;;;0.40;0.30;;;;;;;8.33;79.56;102306.69;5052872;28;20445;-72
2022/03/17 07:47:45;;;;;;;1.33;1.23;;;;;;;8.29;80.15;102306.38;5052603;28;20454;-72
2022/03/17 07:50:13;;;;;;;0.90;0.90;;;;;;;8.31;79.70;102314.22;5052887;28;20446;-72
2022/03/17 07:52:40;;;;;;;0.40;0.30;;;;;;;8.38;79.74;102316.81;5052920;28;20493;-72
2022/03/17 07:55:07;;;;;;;0.50;0.50;;;;;;;8.42;79.04;102323.34;5052636;28;20943;-72
2022/03/17 07:57:35;;;;;;;3.30;3.10;;;;;;;8.47;78.97;102318.03;5052737;28;20486;-72
2022/03/17 08:00:02;;;;;;;3.17;2.97;;;;;;;8.53;79.40;102320.56;5052897;28;20487;-71
2022/03/17 08:02:29;;;;;;;0.40;0.30;;;;;;;8.63;79.25;102317.22;5052885;28;20447;-72
2022/03/17 08:04:55;;;;;;;2.10;1.90;;;;;;;8.69;79.26;102324.34;5052785;28;20858;-72
2022/03/17 08:07:24;;;;;;;0.40;0.30;;;;;;;8.71;78.82;102316.00;5055158;28;20994;-72
2022/03/17 08:09:51;;;;;;;12.53;5.03;;;;;;;8.77;78.95;102313.16;5056715;28;20438;-72
2022/03/17 08:12:17;;;;;;;0.93;0.93;;;;;;;8.80;78.61;102312.63;5056718;28;20448;-72
2022/03/17 08:14:44;;;;;;;0.40;0.30;;;;;;;8.95;78.06;102322.88;5056592;28;20442;-72
2022/03/17 08:17:10;;;;;;;2.00;1.90;;;;;;;8.96;77.51;102316.41;5056371;28;20481;-73
2022/03/17 08:19:37;;;;;;;1.40;1.30;;;;;;;9.09;77.32;102315.25;5056410;28;20947;-73
2022/03/17 08:22:04;;;;;;;0.40;0.30;;;;;;;9.13;77.76;102308.28;5056627;28;20854;-75
2022/03/17 08:24:31;;;;;;;8.43;7.73;;;;;;;9.17;77.61;102305.91;5056573;28;20449;-74
2022/03/17 08:26:59;;;;;;;0.40;0.30;;;;;;;9.17;76.99;102314.81;5056350;28;20519;-73
2022/03/17 08:29:25;;;;;;;1.13;1.03;;;;;;;9.20;76.89;102306.19;5056407;28;20472;-73
2022/03/17 08:31:51;;;;;;;2.17;2.00;;;;;;;9.31;76.34;102302.56;5056267;28;20442;-73
2022/03/17 08:34:18;;;;;;;1.33;0.90;;;;;;;9.40;75.86;102299.44;5056226;28;20442;-73
2022/03/17 08:36:45;;;;;;;0.73;0.73;;;;;;;9.45;75.52;102296.81;5056210;28;20473;-75
2022/03/17 08:39:11;;;;;;;0.50;0.30;;;;;;;9.46;75.54;102295.72;5056520;28;20488;-73
2022/03/17 08:41:39;;;;;;;0.50;0.40;;;;;;;9.53;75.52;102299.06;5059310;28;20453;-75
2022/03/17 08:44:06;;;;;;;2.83;2.73;;;;;;;9.63;75.56;102304.59;5057096;28;20486;-77
2022/03/17 08:49:19;;;;;;;1.03;0.70;;;;;;;9.72;75.29;102307.69;5057809;28;20405;-78
2022/03/17 08:51:46;;;;;;;0.40;0.30;;;;;;;9.75;75.43;102305.28;5058745;28;20449;-79
2022/03/17 08:54:13;;;;;;;0.77;0.77;;;;;;;9.73;75.24;102298.47;5057798;28;20445;-75
2022/03/17 08:56:42;;;;;;;1.20;1.13;;;;;;;9.76;74.60;102304.22;5055721;28;20982;-75
2022/03/17 08:59:09;;;;;;;0.40;0.30;;;;;;;9.80;73.45;102302.63;5056604;28;20482;-75
2022/03/17 09:01:37;;;;;;;0.40;0.23;;;;;;;9.84;73.20;102298.34;5055864;28;20450;-75
2022/03/17 09:04:03;;;;;;;0.40;0.30;;;;;;;9.82;73.37;102303.19;5055790;28;20548;-75
2022/03/17 09:06:30;;;;;;;0.40;0.20;;;;;;;9.84;73.35;102303.78;5055872;28;20438;-75
2022/03/17 09:08:56;;;;;;;0.40;0.30;;;;;;;9.80;72.83;102299.94;5055664;28;20443;-76
2022/03/17 09:11:23;;;;;;;0.70;0.70;;;;;;;9.74;72.41;102305.53;5055628;28;20450;-76
2022/03/17 09:13:50;;;;;;;0.63;0.63;;;;;;;9.83;72.15;102307.56;5055805;28;20790;-76
2022/03/17 09:16:17;;;;;;;1.00;0.60;;;;;;;10.21;75.08;102311.19;5055278;28;20846;-75
2022/03/17 09:18:44;;;;;;;0.40;0.30;;;;;;;10.47;73.06;102303.34;5054193;28;20561;-75
2022/03/17 09:21:10;;;;;;;0.40;0.30;;;;;;;10.65;70.29;102308.38;5055536;28;20449;-75
2022/03/17 09:23:37;;;;;;;0.43;0.37;;;;;;;10.85;68.87;102305.00;5055603;28;20446;-73
2022/03/17 09:26:03;;;;;;;1.27;1.23;;;;;;;10.84;67.46;102308.78;5055658;28;20439;-77
2022/03/17 09:28:30;;;;;;;0.47;0.30;;;;;;;10.88;67.66;102298.22;5055671;28;20473;-79
2022/03/17 09:30:58;;;;;;;1.13;1.03;;;;;;;10.87;67.24;102310.97;5057071;28;20884;-78
2022/03/17 09:33:25;;;;;;;0.40;0.30;;;;;;;10.85;68.53;102308.53;5055395;28;20446;-75
2022/03/17 09:35:52;;;;;;;0.40;0.30;;;;;;;10.93;67.97;102312.63;5055287;28;20446;-74
2022/03/17 09:38:19;;;;;;;0.40;0.30;;;;;;;10.91;67.53;102311.28;5055473;28;20905;-75
2022/03/17 09:40:45;;;;;;;0.50;0.40;;;;;;;10.96;67.43;102312.13;5055319;28;20442;-75
2022/03/17 09:43:21;;;;;;;8.37;7.53;;;;;;;10.96;66.41;102320.25;5055996;28;20450;-79
2022/03/17 09:45:52;;;;;;;0.97;0.97;;;;;;;11.00;66.18;102317.84;5055666;28;20939;-74
2022/03/17 09:48:22;;;;;;;1.37;1.27;;;;;;;11.00;65.82;102320.56;5055610;28;20478;-77
2022/03/17 09:50:55;;;;;;;0.90;0.90;;;;;;;10.96;65.40;102319.44;5055014;28;20438;-76
2022/03/17 09:53:23;;;;;;;1.27;1.27;;;;;;;11.07;65.81;102323.88;5054844;28;20476;-76
2022/03/17 09:55:50;;;;;;;0.90;0.90;;;;;;;11.08;65.94;102328.22;5054706;28;20500;-76
2022/03/17 09:58:17;;;;;;;0.40;0.30;;;;;;;11.14;65.43;102329.84;5054479;28;20486;-75
2022/03/17 10:00:51;;;;;;;1.83;1.73;;;;;;;11.12;64.50;102337.47;5054717;28;20521;-75
2022/03/17 10:03:18;;;;;;;2.63;2.23;;;;;;;11.15;65.77;102336.09;5054768;28;20434;-75
2022/03/17 10:05:49;;;;;;;0.40;0.30;;;;;;;11.21;65.31;102335.88;5054551;28;20439;-76
2022/03/17 10:08:17;;;;;;;0.40;0.27;;;;;;;11.20;65.11;102338.84;5054505;28;20462;-76
2022/03/17 10:10:44;;;;;;;1.63;1.53;;;;;;;11.29;64.19;102340.81;5054516;28;20450;-76
2022/03/17 10:13:13;;;;;;;0.50;0.47;;;;;;;11.35;64.11;102344.38;5054479;28;20450;-76
2022/03/17 10:15:39;;;;;;;1.83;1.73;;;;;;;11.32;63.67;102343.00;5054350;28;20508;-75
2022/03/17 10:18:19;;;;;;;4.53;4.23;;;;;;;11.25;65.24;102347.84;5055651;28;21056;-74
2022/03/17 10:20:48;;;;;;;0.70;0.60;;;;;;;11.36;64.68;102348.72;5054078;28;20911;-73
2022/03/17 10:23:23;;;;;;;1.60;1.50;;;;;;;11.40;63.52;102349.00;5054272;28;20453;-72
2022/03/17 10:25:55;;;;;;;2.60;2.40;;;;;;;11.46;62.86;102347.94;5054312;28;20438;-72
2022/03/17 10:28:26;;;;;;;0.40;0.30;;;;;;;11.57;63.78;102358.59;5054113;28;20520;-72
2022/03/17 10:31:03;;;;;;;0.63;0.63;;;;;;;11.46;63.87;102354.19;5054143;28;20484;-73
2022/03/17 10:33:29;;;;;;;0.40;0.30;;;;;;;11.54;63.65;102350.16;5054115;28;20436;-75
2022/03/17 10:36:13;;;;;;;0.50;0.30;;;;;;;11.73;62.83;102343.22;5054027;28;20431;-75
2022/03/17 10:38:43;;;;;;;0.50;0.37;;;;;;;11.86;62.88;102350.06;5053828;28;20539;-72
2022/03/17 10:41:12;;;;;;;0.47;0.40;;;;;;;11.86;61.42;102334.59;5054059;28;20521;-74
2022/03/17 10:43:39;;;;;;;2.00;1.90;;;;;;;11.84;63.35;102349.53;5053429;28;20541;-73
2022/03/17 10:46:06;;;;;;;1.23;1.13;;;;;;;11.89;63.29;102337.84;5053420;28;20580;-73
2022/03/17 10:48:33;;;;;;;0.93;0.93;;;;;;;11.96;62.43;102341.16;5053120;28;20458;-73
2022/03/17 10:51:01;;;;;;;0.40;0.30;;;;;;;11.95;62.20;102344.94;5053162;28;20453;-74
2022/03/17 10:53:28;;;;;;;0.40;0.30;;;;;;;12.00;61.17;102340.34;5052911;28;20442;-74
2022/03/17 10:56:10;;;;;;;2.10;2.00;;;;;;;12.01;60.53;102341.16;5053123;28;20482;-75
2022/03/17 10:58:42;;;;;;;2.00;1.80;;;;;;;11.93;62.44;102341.69;5053014;28;20573;-74
2022/03/17 11:01:08;;;;;;;0.73;0.73;;;;;;;11.98;62.30;102338.97;5053156;28;20514;-76
2022/03/17 11:03:35;;;;;;;0.40;0.30;;;;;;;12.04;62.16;102340.59;5053135;28;20450;-75
2022/03/17 11:06:04;;;;;;;0.40;0.30;;;;;;;12.04;61.72;102337.88;5052984;28;20461;-74
2022/03/17 11:08:32;;;;;;;0.70;0.70;;;;;;;12.05;60.62;102339.53;5052995;28;20565;-75
2022/03/17 11:10:59;;;;;;;0.53;0.53;;;;;;;12.06;61.53;102341.16;5052915;28;20439;-76
2022/03/17 11:13:26;;;;;;;0.50;0.40;;;;;;;11.97;61.98;102337.34;5052954;28;20442;-75
2022/03/17 11:15:58;;;;;;;0.50;0.40;;;;;;;12.07;61.53;102330.03;5052554;28;20970;-76
2022/03/17 11:18:27;;;;;;;0.60;0.60;;;;;;;12.15;61.41;102336.84;5052618;28;20572;-75
2022/03/17 11:21:13;;;;;;;0.40;0.30;;;;;;;12.25;59.96;102334.13;5052723;28;20442;-75
2022/03/17 11:23:55;;;;;;;0.40;0.30;;;;;;;12.33;59.81;102328.19;5052812;28;20882;-77
2022/03/17 11:26:24;;;;;;;0.40;0.30;;;;;;;12.32;60.33;102332.00;5052653;28;20513;-75
2022/03/17 11:28:50;;;;;;;3.30;2.73;;;;;;;12.44;59.42;102330.91;5052529;28;20466;-76
2022/03/17 11:31:20;;;;;;;0.40;0.30;;;;;;;12.56;59.42;102328.75;5052495;28;20434;-74
2022/03/17 11:33:47;;;;;;;0.40;0.30;;;;;;;12.67;59.45;102337.72;5052749;28;20845;-73
2022/03/17 11:36:21;;;;;;;0.40;0.30;;;;;;;12.76;57.95;102342.34;5052286;28;20939;-73
2022/03/17 11:38:58;;;;;;;0.50;0.40;;;;;;;12.87;58.22;102352.13;5052368;28;20627;-73
2022/03/17 11:41:26;;;;;;;1.00;1.00;;;;;;;12.79;57.41;102343.69;5055202;28;20809;-73
2022/03/17 11:44:04;;;;;;;0.40;0.30;;;;;;;12.87;57.17;102337.72;5059163;28;20862;-73